createdAt,value
2023-04-08T00:01:28.810Z,39
2023-04-08T00:06:28.800Z,34
2023-04-08T00:11:28.812Z,28
2023-04-08T00:16:28.812Z,33
2023-04-08T00:21:28.813Z,35
2023-04-08T00:26:28.815Z,38
2023-04-08T00:31:28.805Z,39
2023-04-08T00:36:28.816Z,21
2023-04-08T00:41:28.806Z,35
2023-04-08T00:46:28.818Z,29
2023-04-08T00:51:28.819Z,25
2023-04-08T00:56:28.809Z,35
2023-04-08T01:01:28.822Z,45
2023-04-08T01:06:28.811Z,41
2023-04-08T01:11:28.823Z,41
2023-04-08T01:16:28.813Z,37
2023-04-08T01:21:28.825Z,31
2023-04-08T01:26:28.826Z,21
2023-04-08T01:31:28.816Z,22
2023-04-08T01:36:28.828Z,18
2023-04-08T01:41:28.818Z,18
2023-04-08T01:46:28.830Z,18
2023-04-08T01:51:28.831Z,22
2023-04-08T01:56:28.832Z,24
2023-04-08T02:01:28.833Z,24
2023-04-08T02:06:28.823Z,22
2023-04-08T02:11:28.835Z,20
2023-04-08T02:16:28.825Z,19
2023-04-08T02:21:28.837Z,23
2023-04-08T02:26:28.837Z,21
2023-04-08T02:31:28.828Z,17
2023-04-08T02:36:28.840Z,15
2023-04-08T02:41:28.830Z,15
2023-04-08T02:46:28.841Z,14
2023-04-08T02:51:28.832Z,14
2023-04-08T02:56:28.843Z,17
2023-04-08T03:01:28.844Z,22
2023-04-08T03:06:28.834Z,20
2023-04-08T03:11:28.847Z,24
2023-04-08T03:16:28.836Z,20
2023-04-08T03:21:28.848Z,24
2023-04-08T03:26:28.849Z,25
2023-04-08T03:31:28.850Z,19
2023-04-08T03:36:28.852Z,13
2023-04-08T03:41:28.841Z,18
2023-04-08T03:46:28.853Z,21
2023-04-08T03:51:28.843Z,25
2023-04-08T03:56:28.855Z,21
2023-04-08T04:01:28.856Z,28
2023-04-08T04:06:28.882Z,29
2023-04-08T04:11:28.859Z,23
2023-04-08T04:16:28.849Z,29
2023-04-08T04:21:28.860Z,18
2023-04-08T04:26:28.851Z,19
2023-04-08T04:31:28.862Z,28
2023-04-08T04:36:28.863Z,26
2023-04-08T04:41:28.854Z,19
2023-04-08T04:46:28.866Z,28
2023-04-08T04:51:28.856Z,26
2023-04-08T04:56:28.867Z,34
2023-04-08T05:01:28.868Z,37
2023-04-08T05:06:28.870Z,31
2023-04-08T05:11:28.871Z,37
2023-04-08T05:16:28.861Z,41
2023-04-08T05:21:28.872Z,36
2023-04-08T05:26:28.863Z,42
2023-04-08T05:31:28.875Z,40
2023-04-08T05:36:28.875Z,38
2023-04-08T05:41:28.941Z,37
2023-04-08T05:46:28.878Z,43
2023-04-08T05:51:28.868Z,49
2023-04-08T05:56:28.880Z,59
2023-04-08T06:01:28.870Z,82
2023-04-08T06:06:28.882Z,67
2023-04-08T06:11:28.883Z,63
2023-04-08T06:16:28.873Z,66
2023-04-08T06:21:28.885Z,63
2023-04-08T06:26:28.875Z,49
2023-04-08T06:31:28.887Z,49
2023-04-08T06:36:28.888Z,66
2023-04-08T06:41:28.889Z,53
2023-04-08T06:46:28.891Z,66
2023-04-08T06:51:28.880Z,76
2023-04-08T06:56:28.892Z,81
2023-04-08T07:01:28.882Z,90
2023-04-08T07:06:28.895Z,73
2023-04-08T07:11:28.895Z,90
2023-04-08T07:16:28.886Z,109
2023-04-08T07:21:28.898Z,115
2023-04-08T07:26:28.888Z,103
2023-04-08T07:31:28.900Z,111
2023-04-08T07:36:28.890Z,123
2023-04-08T07:41:28.902Z,99
2023-04-08T07:46:28.903Z,109
2023-04-08T07:51:28.894Z,136
2023-04-08T07:56:28.907Z,139
2023-04-08T08:01:28.896Z,123
2023-04-08T08:06:28.909Z,143
2023-04-08T08:11:28.910Z,146
2023-04-08T08:16:28.911Z,166
2023-04-08T08:21:28.913Z,175
2023-04-08T08:26:28.903Z,176
2023-04-08T08:31:28.915Z,162
2023-04-08T08:36:28.905Z,205
2023-04-08T08:41:28.918Z,168
2023-04-08T08:46:28.919Z,191
2023-04-08T08:51:28.945Z,157
2023-04-08T08:56:28.922Z,190
2023-04-08T09:01:28.912Z,204
2023-04-08T09:06:28.924Z,182
2023-04-08T09:11:28.915Z,217
2023-04-08T09:16:28.927Z,31
2023-04-08T09:21:28.928Z,12
2023-04-08T09:26:28.919Z,251
2023-04-08T09:31:28.931Z,19
2023-04-08T09:36:28.921Z,15
2023-04-08T09:41:28.934Z,238
2023-04-08T09:46:28.934Z,253
2023-04-08T09:51:28.936Z,219
2023-04-08T09:56:28.938Z,195
2023-04-08T10:01:28.927Z,223
2023-04-08T10:06:28.940Z,220
2023-04-08T10:11:28.930Z,184
2023-04-08T10:16:28.942Z,180
2023-04-08T10:21:28.943Z,120
2023-04-08T10:26:29.010Z,136
2023-04-08T10:31:28.946Z,120
2023-04-08T10:36:28.936Z,106
2023-04-08T10:41:28.948Z,99
2023-04-08T10:46:28.939Z,136
2023-04-08T10:51:28.951Z,131
2023-04-08T10:56:28.952Z,159
2023-04-08T11:01:28.942Z,174
2023-04-08T11:06:28.955Z,148
2023-04-08T11:11:28.945Z,95
2023-04-08T11:16:28.957Z,115
2023-04-08T11:21:28.958Z,97
2023-04-08T11:26:28.960Z,112
2023-04-08T11:31:28.962Z,119
2023-04-08T11:36:28.951Z,111
2023-04-08T11:41:28.963Z,99
2023-04-08T11:46:28.954Z,103
2023-04-08T11:51:28.966Z,94
2023-04-08T11:56:28.967Z,87
2023-04-08T12:01:29.033Z,109
2023-04-08T12:06:28.970Z,118
2023-04-08T12:11:28.960Z,93
2023-04-08T12:16:28.972Z,85
2023-04-08T12:21:28.963Z,101
2023-04-08T12:26:28.975Z,111
2023-04-08T12:31:28.976Z,93
2023-04-08T12:36:28.966Z,81
2023-04-08T12:41:28.979Z,74
2023-04-08T12:46:28.969Z,76
2023-04-08T12:51:28.981Z,82
2023-04-08T12:56:28.982Z,84
2023-04-08T13:01:28.984Z,81
2023-04-08T13:06:28.985Z,80
2023-04-08T13:11:28.975Z,88
2023-04-08T13:16:28.987Z,108
2023-04-08T13:21:28.978Z,89
2023-04-08T13:26:28.990Z,73
2023-04-08T13:31:28.991Z,87
2023-04-08T13:36:28.981Z,90
2023-04-08T13:41:28.994Z,80
2023-04-08T13:46:28.984Z,102
2023-04-08T13:51:28.996Z,102
2023-04-08T13:56:28.986Z,86
2023-04-08T14:01:28.998Z,90
2023-04-08T14:06:29.000Z,92
2023-04-08T14:11:28.990Z,65
2023-04-08T14:16:29.003Z,84
2023-04-08T14:21:28.993Z,89
2023-04-08T14:26:29.005Z,72
2023-04-08T14:31:29.006Z,82
2023-04-08T14:36:29.007Z,84
2023-04-08T14:41:29.009Z,75
2023-04-08T14:46:28.999Z,75
2023-04-08T14:51:29.011Z,77
2023-04-08T14:56:29.001Z,53
2023-04-08T15:01:29.013Z,70
2023-04-08T15:06:29.014Z,66
2023-04-08T15:11:29.005Z,68
2023-04-08T15:16:29.018Z,71
2023-04-08T15:21:29.007Z,54
2023-04-08T15:26:29.019Z,69
2023-04-08T15:31:29.010Z,68
2023-04-08T15:36:29.022Z,65
2023-04-08T15:41:29.023Z,74
2023-04-08T15:46:29.014Z,83
2023-04-08T15:51:29.027Z,76
2023-04-08T15:56:29.016Z,90
2023-04-08T16:01:29.029Z,101
2023-04-08T16:06:29.030Z,83
2023-04-08T16:11:29.031Z,71
2023-04-08T16:16:29.033Z,135
2023-04-08T16:21:29.023Z,88
2023-04-08T16:26:29.035Z,69
2023-04-08T16:31:29.025Z,67
2023-04-08T16:36:29.037Z,73
2023-04-08T16:41:29.038Z,66
2023-04-08T16:46:29.029Z,68
2023-04-08T16:51:29.042Z,55
2023-04-08T16:56:29.031Z,72
2023-04-08T17:01:29.043Z,75
2023-04-08T17:06:29.034Z,78
2023-04-08T17:11:29.046Z,63
2023-04-08T17:16:29.047Z,73
2023-04-08T17:21:29.037Z,63
2023-04-08T17:26:29.050Z,61
2023-04-08T17:31:29.040Z,75
2023-04-08T17:36:29.052Z,53
2023-04-08T17:41:29.053Z,64
2023-04-08T17:46:29.054Z,85
2023-04-08T17:51:29.056Z,76
2023-04-08T17:56:29.046Z,73
2023-04-08T18:01:29.058Z,100
2023-04-08T18:06:29.048Z,82
2023-04-08T18:11:29.060Z,67
2023-04-08T18:16:29.061Z,123
2023-04-08T18:21:29.051Z,109
2023-04-08T18:26:29.064Z,94
2023-04-08T18:31:29.054Z,91
2023-04-08T18:36:29.066Z,103
2023-04-08T18:41:29.056Z,96
2023-04-08T18:46:29.068Z,87
2023-04-08T18:51:29.069Z,102
2023-04-08T18:56:29.060Z,118
2023-04-08T19:01:29.072Z,119
2023-04-08T19:06:29.062Z,103
2023-04-08T19:11:29.074Z,82
2023-04-08T19:16:29.075Z,119
2023-04-08T19:21:29.076Z,116
2023-04-08T19:26:29.078Z,99
2023-04-08T19:31:29.067Z,94
2023-04-08T19:36:29.080Z,89
2023-04-08T19:41:29.070Z,81
2023-04-08T19:46:29.082Z,96
2023-04-08T19:51:29.083Z,90
2023-04-08T19:56:29.073Z,82
2023-04-08T20:01:29.086Z,105
2023-04-08T20:06:29.075Z,101
2023-04-08T20:11:29.087Z,103
2023-04-08T20:16:29.078Z,124
2023-04-08T20:21:29.090Z,103
2023-04-08T20:26:29.091Z,101
2023-04-08T20:31:29.081Z,91
2023-04-08T20:36:29.094Z,97
2023-04-08T20:41:29.083Z,95
2023-04-08T20:46:29.095Z,89
2023-04-08T20:51:29.096Z,90
2023-04-08T20:56:29.098Z,79
2023-04-08T21:01:29.099Z,94
2023-04-08T21:06:29.089Z,90
2023-04-08T21:11:29.101Z,91
2023-04-08T21:16:29.091Z,74
2023-04-08T21:21:29.103Z,97
2023-04-08T21:26:29.104Z,90
2023-04-08T21:31:29.095Z,76
2023-04-08T21:36:29.107Z,55
2023-04-08T21:41:29.097Z,59
2023-04-08T21:46:29.109Z,81
2023-04-08T21:51:29.099Z,53
2023-04-08T21:56:29.111Z,54
2023-04-08T22:01:29.112Z,60
2023-04-08T22:06:29.102Z,61
2023-04-08T22:11:29.115Z,59
2023-04-08T22:21:29.116Z,58
2023-04-08T22:26:29.117Z,59
2023-04-08T22:31:29.119Z,60
2023-04-08T22:36:29.120Z,53
2023-04-08T22:41:29.110Z,50
2023-04-08T22:46:29.122Z,81
2023-04-08T22:51:29.112Z,74
2023-04-08T22:56:29.124Z,79
2023-04-08T23:01:29.125Z,88
2023-04-08T23:06:29.115Z,55
2023-04-08T23:11:29.128Z,43
2023-04-08T23:16:29.117Z,50
2023-04-08T23:21:29.129Z,35
2023-04-08T23:26:29.120Z,43
2023-04-08T23:31:29.132Z,53
2023-04-08T23:36:29.132Z,51
2023-04-08T23:41:29.123Z,38
2023-04-08T23:46:29.135Z,49
2023-04-08T23:51:29.125Z,42
2023-04-08T23:56:29.137Z,41
